sensor_id;sensor_type;location;lat;lon;timestamp;P1;durP1;ratioP1;P2;durP2;ratioP2
12048;SDS011;6085;49.452;8.502;2023-07-29T00:03:33;1.60;;;1.45;;
12048;SDS011;6085;49.452;8.502;2023-07-29T00:07:36;1.55;;;1.42;;
12048;SDS011;6085;49.452;8.502;2023-07-29T00:11:38;1.17;;;1.17;;
12048;SDS011;6085;49.452;8.502;2023-07-29T00:15:40;1.38;;;1.27;;
12048;SDS011;6085;49.452;8.502;2023-07-29T00:19:42;1.73;;;1.20;;
12048;SDS011;6085;49.452;8.502;2023-07-29T00:23:47;1.45;;;1.35;;
12048;SDS011;6085;49.452;8.502;2023-07-29T00:27:49;1.20;;;1.10;;
12048;SDS011;6085;49.452;8.502;2023-07-29T00:31:51;1.33;;;1.27;;
12048;SDS011;6085;49.452;8.502;2023-07-29T00:35:53;1.30;;;1.20;;
12048;SDS011;6085;49.452;8.502;2023-07-29T00:39:56;1.40;;;1.30;;
12048;SDS011;6085;49.452;8.502;2023-07-29T00:43:58;1.58;;;1.27;;
12048;SDS011;6085;49.452;8.502;2023-07-29T00:48:00;1.17;;;1.10;;
12048;SDS011;6085;49.452;8.502;2023-07-29T00:52:04;1.20;;;1.00;;
12048;SDS011;6085;49.452;8.502;2023-07-29T00:56:07;0.93;;;0.90;;
12048;SDS011;6085;49.452;8.502;2023-07-29T01:00:09;0.70;;;0.70;;
12048;SDS011;6085;49.452;8.502;2023-07-29T01:04:12;0.85;;;0.80;;
12048;SDS011;6085;49.452;8.502;2023-07-29T01:08:16;1.85;;;1.27;;
12048;SDS011;6085;49.452;8.502;2023-07-29T01:12:24;1.20;;;1.10;;
12048;SDS011;6085;49.452;8.502;2023-07-29T01:16:37;2.35;;;1.17;;
12048;SDS011;6085;49.452;8.502;2023-07-29T01:20:42;1.25;;;1.15;;
12048;SDS011;6085;49.452;8.502;2023-07-29T01:24:48;1.00;;;1.00;;
12048;SDS011;6085;49.452;8.502;2023-07-29T01:28:50;0.80;;;0.80;;
12048;SDS011;6085;49.452;8.502;2023-07-29T01:32:53;1.58;;;1.30;;
12048;SDS011;6085;49.452;8.502;2023-07-29T01:36:58;1.10;;;1.10;;
12048;SDS011;6085;49.452;8.502;2023-07-29T01:41:04;2.28;;;1.13;;
12048;SDS011;6085;49.452;8.502;2023-07-29T01:45:09;1.50;;;1.40;;
12048;SDS011;6085;49.452;8.502;2023-07-29T01:49:11;1.10;;;1.00;;
12048;SDS011;6085;49.452;8.502;2023-07-29T01:53:13;1.42;;;1.17;;
12048;SDS011;6085;49.452;8.502;2023-07-29T01:57:16;1.50;;;1.13;;
12048;SDS011;6085;49.452;8.502;2023-07-29T02:01:18;2.05;;;1.20;;
12048;SDS011;6085;49.452;8.502;2023-07-29T02:05:20;1.50;;;1.15;;
12048;SDS011;6085;49.452;8.502;2023-07-29T02:09:22;1.08;;;1.08;;
12048;SDS011;6085;49.452;8.502;2023-07-29T02:13:27;2.13;;;1.38;;
12048;SDS011;6085;49.452;8.502;2023-07-29T02:17:29;0.90;;;0.90;;
12048;SDS011;6085;49.452;8.502;2023-07-29T02:21:31;1.17;;;1.15;;
12048;SDS011;6085;49.452;8.502;2023-07-29T02:25:34;1.23;;;1.13;;
12048;SDS011;6085;49.452;8.502;2023-07-29T02:29:38;1.23;;;1.05;;
12048;SDS011;6085;49.452;8.502;2023-07-29T02:33:40;1.27;;;1.17;;
12048;SDS011;6085;49.452;8.502;2023-07-29T02:37:42;1.45;;;1.35;;
12048;SDS011;6085;49.452;8.502;2023-07-29T02:41:44;0.90;;;0.90;;
12048;SDS011;6085;49.452;8.502;2023-07-29T02:45:47;1.20;;;1.10;;
12048;SDS011;6085;49.452;8.502;2023-07-29T02:49:49;1.30;;;1.20;;
12048;SDS011;6085;49.452;8.502;2023-07-29T02:53:51;1.02;;;1.02;;
12048;SDS011;6085;49.452;8.502;2023-07-29T02:57:53;1.10;;;1.00;;
12048;SDS011;6085;49.452;8.502;2023-07-29T03:01:57;1.27;;;1.17;;
12048;SDS011;6085;49.452;8.502;2023-07-29T03:05:59;1.02;;;1.00;;
12048;SDS011;6085;49.452;8.502;2023-07-29T03:10:02;0.82;;;0.82;;
12048;SDS011;6085;49.452;8.502;2023-07-29T03:14:04;1.30;;;1.20;;
12048;SDS011;6085;49.452;8.502;2023-07-29T03:18:07;1.30;;;1.20;;
12048;SDS011;6085;49.452;8.502;2023-07-29T03:22:09;2.13;;;1.40;;
12048;SDS011;6085;49.452;8.502;2023-07-29T03:26:11;1.38;;;1.27;;
12048;SDS011;6085;49.452;8.502;2023-07-29T03:30:13;1.17;;;1.08;;
12048;SDS011;6085;49.452;8.502;2023-07-29T03:34:16;1.27;;;1.17;;
12048;SDS011;6085;49.452;8.502;2023-07-29T03:38:18;1.17;;;1.08;;
12048;SDS011;6085;49.452;8.502;2023-07-29T03:42:20;1.13;;;1.10;;
12048;SDS011;6085;49.452;8.502;2023-07-29T03:46:22;0.98;;;0.98;;
12048;SDS011;6085;49.452;8.502;2023-07-29T03:50:25;4.47;;;1.25;;
12048;SDS011;6085;49.452;8.502;2023-07-29T03:54:27;1.75;;;1.13;;
12048;SDS011;6085;49.452;8.502;2023-07-29T03:58:29;1.13;;;1.13;;
12048;SDS011;6085;49.452;8.502;2023-07-29T04:02:31;1.02;;;1.02;;
12048;SDS011;6085;49.452;8.502;2023-07-29T04:06:34;1.02;;;1.00;;
12048;SDS011;6085;49.452;8.502;2023-07-29T04:10:36;1.08;;;1.08;;
12048;SDS011;6085;49.452;8.502;2023-07-29T04:14:38;1.38;;;0.93;;
12048;SDS011;6085;49.452;8.502;2023-07-29T04:18:41;1.40;;;1.30;;
12048;SDS011;6085;49.452;8.502;2023-07-29T04:22:44;1.20;;;1.10;;
12048;SDS011;6085;49.452;8.502;2023-07-29T04:26:46;2.78;;;1.15;;
12048;SDS011;6085;49.452;8.502;2023-07-29T04:30:48;1.02;;;1.00;;
12048;SDS011;6085;49.452;8.502;2023-07-29T04:34:50;1.10;;;1.10;;
12048;SDS011;6085;49.452;8.502;2023-07-29T04:38:53;1.55;;;1.45;;
12048;SDS011;6085;49.452;8.502;2023-07-29T04:42:55;1.13;;;1.13;;
12048;SDS011;6085;49.452;8.502;2023-07-29T04:46:59;1.48;;;1.38;;
12048;SDS011;6085;49.452;8.502;2023-07-29T04:51:01;1.35;;;1.25;;
12048;SDS011;6085;49.452;8.502;2023-07-29T04:55:05;1.45;;;1.35;;
12048;SDS011;6085;49.452;8.502;2023-07-29T04:59:08;1.90;;;1.45;;
12048;SDS011;6085;49.452;8.502;2023-07-29T05:03:12;1.60;;;1.50;;
12048;SDS011;6085;49.452;8.502;2023-07-29T05:07:14;1.58;;;1.40;;
12048;SDS011;6085;49.452;8.502;2023-07-29T05:11:18;1.42;;;1.33;;
12048;SDS011;6085;49.452;8.502;2023-07-29T05:15:20;1.20;;;1.10;;
12048;SDS011;6085;49.452;8.502;2023-07-29T05:19:22;2.92;;;1.35;;
12048;SDS011;6085;49.452;8.502;2023-07-29T05:23:23;1.42;;;1.27;;
12048;SDS011;6085;49.452;8.502;2023-07-29T05:27:27;1.33;;;1.23;;
12048;SDS011;6085;49.452;8.502;2023-07-29T05:31:29;1.10;;;1.10;;
12048;SDS011;6085;49.452;8.502;2023-07-29T05:35:31;1.17;;;1.17;;
12048;SDS011;6085;49.452;8.502;2023-07-29T05:39:33;1.85;;;1.33;;
12048;SDS011;6085;49.452;8.502;2023-07-29T05:43:36;1.92;;;1.08;;
12048;SDS011;6085;49.452;8.502;2023-07-29T05:47:38;0.73;;;0.73;;
12048;SDS011;6085;49.452;8.502;2023-07-29T05:51:40;0.80;;;0.80;;
12048;SDS011;6085;49.452;8.502;2023-07-29T05:55:43;1.25;;;1.10;;
12048;SDS011;6085;49.452;8.502;2023-07-29T05:59:46;1.20;;;1.20;;
12048;SDS011;6085;49.452;8.502;2023-07-29T06:03:48;0.90;;;0.77;;
12048;SDS011;6085;49.452;8.502;2023-07-29T06:07:50;1.20;;;1.10;;
12048;SDS011;6085;49.452;8.502;2023-07-29T06:11:52;1.38;;;1.27;;
12048;SDS011;6085;49.452;8.502;2023-07-29T06:15:55;1.60;;;1.23;;
12048;SDS011;6085;49.452;8.502;2023-07-29T06:19:57;1.33;;;1.23;;
12048;SDS011;6085;49.452;8.502;2023-07-29T06:23:59;1.80;;;1.70;;
12048;SDS011;6085;49.452;8.502;2023-07-29T06:28:01;1.52;;;1.42;;
12048;SDS011;6085;49.452;8.502;2023-07-29T06:32:05;1.65;;;1.50;;
12048;SDS011;6085;49.452;8.502;2023-07-29T06:36:07;1.85;;;1.75;;
12048;SDS011;6085;49.452;8.502;2023-07-29T06:40:09;1.40;;;1.30;;
12048;SDS011;6085;49.452;8.502;2023-07-29T06:44:12;1.33;;;1.23;;
12048;SDS011;6085;49.452;8.502;2023-07-29T06:48:15;1.30;;;1.20;;
12048;SDS011;6085;49.452;8.502;2023-07-29T06:52:18;1.58;;;1.40;;
12048;SDS011;6085;49.452;8.502;2023-07-29T06:56:20;1.30;;;1.20;;
12048;SDS011;6085;49.452;8.502;2023-07-29T07:00:22;1.33;;;1.13;;
12048;SDS011;6085;49.452;8.502;2023-07-29T07:04:25;1.40;;;1.30;;
12048;SDS011;6085;49.452;8.502;2023-07-29T07:08:27;2.13;;;1.92;;
12048;SDS011;6085;49.452;8.502;2023-07-29T07:12:31;1.90;;;1.30;;
12048;SDS011;6085;49.452;8.502;2023-07-29T07:16:33;1.20;;;1.10;;
12048;SDS011;6085;49.452;8.502;2023-07-29T07:20:38;1.60;;;1.27;;
12048;SDS011;6085;49.452;8.502;2023-07-29T07:24:40;2.22;;;1.27;;
12048;SDS011;6085;49.452;8.502;2023-07-29T07:28:42;1.48;;;1.38;;
12048;SDS011;6085;49.452;8.502;2023-07-29T07:32:44;1.10;;;1.10;;
12048;SDS011;6085;49.452;8.502;2023-07-29T07:36:48;1.20;;;1.20;;
12048;SDS011;6085;49.452;8.502;2023-07-29T07:40:53;0.98;;;0.98;;
12048;SDS011;6085;49.452;8.502;2023-07-29T07:44:56;1.65;;;1.10;;
12048;SDS011;6085;49.452;8.502;2023-07-29T07:48:58;1.20;;;1.10;;
12048;SDS011;6085;49.452;8.502;2023-07-29T07:53:01;1.17;;;1.08;;
12048;SDS011;6085;49.452;8.502;2023-07-29T07:57:04;0.80;;;0.80;;
12048;SDS011;6085;49.452;8.502;2023-07-29T08:01:07;1.35;;;1.10;;
12048;SDS011;6085;49.452;8.502;2023-07-29T08:05:10;1.13;;;1.10;;
12048;SDS011;6085;49.452;8.502;2023-07-29T08:09:13;3.10;;;1.10;;
12048;SDS011;6085;49.452;8.502;2023-07-29T08:13:15;1.92;;;1.17;;
12048;SDS011;6085;49.452;8.502;2023-07-29T08:17:17;1.35;;;1.10;;
12048;SDS011;6085;49.452;8.502;2023-07-29T08:21:19;1.48;;;1.38;;
12048;SDS011;6085;49.452;8.502;2023-07-29T08:25:22;1.30;;;1.20;;
12048;SDS011;6085;49.452;8.502;2023-07-29T08:29:24;1.50;;;1.40;;
12048;SDS011;6085;49.452;8.502;2023-07-29T08:33:26;1.38;;;1.27;;
12048;SDS011;6085;49.452;8.502;2023-07-29T08:37:29;1.50;;;1.40;;
12048;SDS011;6085;49.452;8.502;2023-07-29T08:41:35;1.30;;;1.20;;
12048;SDS011;6085;49.452;8.502;2023-07-29T08:45:42;1.00;;;1.00;;
12048;SDS011;6085;49.452;8.502;2023-07-29T08:49:45;1.65;;;1.33;;
12048;SDS011;6085;49.452;8.502;2023-07-29T08:53:48;1.10;;;1.10;;
12048;SDS011;6085;49.452;8.502;2023-07-29T08:57:52;1.17;;;1.08;;
12048;SDS011;6085;49.452;8.502;2023-07-29T09:01:55;0.85;;;0.85;;
12048;SDS011;6085;49.452;8.502;2023-07-29T09:05:58;1.17;;;1.15;;
12048;SDS011;6085;49.452;8.502;2023-07-29T09:10:03;1.05;;;0.80;;
12048;SDS011;6085;49.452;8.502;2023-07-29T09:14:07;0.82;;;0.82;;
12048;SDS011;6085;49.452;8.502;2023-07-29T09:18:10;1.38;;;1.08;;
12048;SDS011;6085;49.452;8.502;2023-07-29T09:22:17;0.63;;;0.63;;
12048;SDS011;6085;49.452;8.502;2023-07-29T09:26:21;1.02;;;0.82;;
12048;SDS011;6085;49.452;8.502;2023-07-29T09:30:26;0.80;;;0.80;;
12048;SDS011;6085;49.452;8.502;2023-07-29T09:34:28;0.88;;;0.88;;
12048;SDS011;6085;49.452;8.502;2023-07-29T09:38:30;1.48;;;0.85;;
12048;SDS011;6085;49.452;8.502;2023-07-29T09:42:32;0.80;;;0.80;;
12048;SDS011;6085;49.452;8.502;2023-07-29T09:46:36;0.65;;;0.65;;
12048;SDS011;6085;49.452;8.502;2023-07-29T09:50:38;0.90;;;0.90;;
12048;SDS011;6085;49.452;8.502;2023-07-29T09:54:42;0.80;;;0.70;;
12048;SDS011;6085;49.452;8.502;2023-07-29T09:58:45;1.38;;;0.98;;
12048;SDS011;6085;49.452;8.502;2023-07-29T10:02:48;0.95;;;0.90;;
12048;SDS011;6085;49.452;8.502;2023-07-29T10:06:52;0.93;;;0.93;;
12048;SDS011;6085;49.452;8.502;2023-07-29T10:10:54;0.90;;;0.90;;
12048;SDS011;6085;49.452;8.502;2023-07-29T10:14:58;1.80;;;0.90;;
12048;SDS011;6085;49.452;8.502;2023-07-29T10:19:02;1.00;;;1.00;;
12048;SDS011;6085;49.452;8.502;2023-07-29T10:23:06;1.08;;;0.93;;
12048;SDS011;6085;49.452;8.502;2023-07-29T10:27:09;0.80;;;0.80;;
12048;SDS011;6085;49.452;8.502;2023-07-29T10:31:16;0.98;;;0.80;;
12048;SDS011;6085;49.452;8.502;2023-07-29T10:35:20;1.00;;;1.00;;
12048;SDS011;6085;49.452;8.502;2023-07-29T10:39:23;1.23;;;0.70;;
12048;SDS011;6085;49.452;8.502;2023-07-29T10:43:26;0.80;;;0.80;;
12048;SDS011;6085;49.452;8.502;2023-07-29T10:47:32;1.10;;;1.08;;
12048;SDS011;6085;49.452;8.502;2023-07-29T10:51:36;1.00;;;0.90;;
12048;SDS011;6085;49.452;8.502;2023-07-29T10:55:39;0.75;;;0.75;;
12048;SDS011;6085;49.452;8.502;2023-07-29T10:59:53;0.85;;;0.85;;
12048;SDS011;6085;49.452;8.502;2023-07-29T11:08:28;0.93;;;0.88;;
12048;SDS011;6085;49.452;8.502;2023-07-29T11:12:37;1.00;;;1.00;;
12048;SDS011;6085;49.452;8.502;2023-07-29T11:16:45;0.85;;;0.85;;
12048;SDS011;6085;49.452;8.502;2023-07-29T11:20:47;0.80;;;0.75;;
12048;SDS011;6085;49.452;8.502;2023-07-29T11:24:51;0.85;;;0.85;;
12048;SDS011;6085;49.452;8.502;2023-07-29T11:28:55;0.77;;;0.77;;
12048;SDS011;6085;49.452;8.502;2023-07-29T11:32:57;0.77;;;0.77;;
12048;SDS011;6085;49.452;8.502;2023-07-29T11:36:59;0.73;;;0.73;;
12048;SDS011;6085;49.452;8.502;2023-07-29T11:41:03;0.93;;;0.93;;
12048;SDS011;6085;49.452;8.502;2023-07-29T11:45:06;0.70;;;0.70;;
12048;SDS011;6085;49.452;8.502;2023-07-29T11:49:09;1.27;;;1.17;;
12048;SDS011;6085;49.452;8.502;2023-07-29T11:53:11;0.68;;;0.68;;
12048;SDS011;6085;49.452;8.502;2023-07-29T11:57:15;1.00;;;0.80;;
12048;SDS011;6085;49.452;8.502;2023-07-29T12:01:18;1.00;;;1.00;;
12048;SDS011;6085;49.452;8.502;2023-07-29T12:05:20;0.82;;;0.80;;
12048;SDS011;6085;49.452;8.502;2023-07-29T12:09:24;0.82;;;0.82;;
12048;SDS011;6085;49.452;8.502;2023-07-29T12:13:29;1.02;;;0.88;;
12048;SDS011;6085;49.452;8.502;2023-07-29T12:17:31;0.70;;;0.70;;
12048;SDS011;6085;49.452;8.502;2023-07-29T12:21:33;0.70;;;0.70;;
12048;SDS011;6085;49.452;8.502;2023-07-29T12:25:36;0.77;;;0.77;;
12048;SDS011;6085;49.452;8.502;2023-07-29T12:29:43;1.13;;;0.90;;
12048;SDS011;6085;49.452;8.502;2023-07-29T12:33:48;0.77;;;0.65;;
12048;SDS011;6085;49.452;8.502;2023-07-29T12:38:00;0.68;;;0.68;;
12048;SDS011;6085;49.452;8.502;2023-07-29T12:42:03;0.98;;;0.80;;
12048;SDS011;6085;49.452;8.502;2023-07-29T12:46:06;0.73;;;0.73;;
12048;SDS011;6085;49.452;8.502;2023-07-29T12:50:09;0.77;;;0.77;;
12048;SDS011;6085;49.452;8.502;2023-07-29T12:54:11;1.80;;;1.70;;
12048;SDS011;6085;49.452;8.502;2023-07-29T12:58:13;0.80;;;0.75;;
12048;SDS011;6085;49.452;8.502;2023-07-29T13:02:16;0.95;;;0.95;;
12048;SDS011;6085;49.452;8.502;2023-07-29T13:06:18;0.75;;;0.75;;
12048;SDS011;6085;49.452;8.502;2023-07-29T13:10:20;1.15;;;0.80;;
12048;SDS011;6085;49.452;8.502;2023-07-29T13:14:22;0.90;;;0.90;;
12048;SDS011;6085;49.452;8.502;2023-07-29T13:18:27;1.33;;;0.90;;
12048;SDS011;6085;49.452;8.502;2023-07-29T13:22:29;1.13;;;1.02;;
12048;SDS011;6085;49.452;8.502;2023-07-29T13:26:31;0.95;;;0.80;;
12048;SDS011;6085;49.452;8.502;2023-07-29T13:30:33;0.88;;;0.85;;
12048;SDS011;6085;49.452;8.502;2023-07-29T13:34:37;0.73;;;0.70;;
12048;SDS011;6085;49.452;8.502;2023-07-29T13:38:40;0.82;;;0.82;;
12048;SDS011;6085;49.452;8.502;2023-07-29T13:42:43;0.75;;;0.55;;
12048;SDS011;6085;49.452;8.502;2023-07-29T13:46:45;0.80;;;0.80;;
12048;SDS011;6085;49.452;8.502;2023-07-29T13:50:48;0.80;;;0.80;;
12048;SDS011;6085;49.452;8.502;2023-07-29T13:54:51;1.10;;;1.00;;
12048;SDS011;6085;49.452;8.502;2023-07-29T13:58:53;0.70;;;0.70;;
12048;SDS011;6085;49.452;8.502;2023-07-29T14:02:55;0.70;;;0.70;;
12048;SDS011;6085;49.452;8.502;2023-07-29T14:06:58;0.80;;;0.80;;
12048;SDS011;6085;49.452;8.502;2023-07-29T14:11:01;0.70;;;0.70;;
12048;SDS011;6085;49.452;8.502;2023-07-29T14:15:06;0.80;;;0.80;;
12048;SDS011;6085;49.452;8.502;2023-07-29T14:19:09;1.10;;;1.00;;
12048;SDS011;6085;49.452;8.502;2023-07-29T14:23:12;1.58;;;0.82;;
12048;SDS011;6085;49.452;8.502;2023-07-29T14:27:14;1.00;;;1.00;;
12048;SDS011;6085;49.452;8.502;2023-07-29T14:31:17;2.05;;;0.90;;
12048;SDS011;6085;49.452;8.502;2023-07-29T14:35:19;1.02;;;1.02;;
12048;SDS011;6085;49.452;8.502;2023-07-29T14:39:22;1.20;;;1.10;;
12048;SDS011;6085;49.452;8.502;2023-07-29T14:43:24;0.80;;;0.80;;
12048;SDS011;6085;49.452;8.502;2023-07-29T14:47:26;0.68;;;0.68;;
12048;SDS011;6085;49.452;8.502;2023-07-29T14:51:28;1.02;;;1.00;;
12048;SDS011;6085;49.452;8.502;2023-07-29T14:55:32;0.90;;;0.90;;
12048;SDS011;6085;49.452;8.502;2023-07-29T14:59:34;0.70;;;0.55;;
12048;SDS011;6085;49.452;8.502;2023-07-29T15:03:36;0.95;;;0.80;;
12048;SDS011;6085;49.452;8.502;2023-07-29T15:07:38;0.85;;;0.85;;
12048;SDS011;6085;49.452;8.502;2023-07-29T15:11:41;1.23;;;1.15;;
12048;SDS011;6085;49.452;8.502;2023-07-29T15:15:43;1.00;;;1.00;;
12048;SDS011;6085;49.452;8.502;2023-07-29T15:19:45;0.85;;;0.85;;
12048;SDS011;6085;49.452;8.502;2023-07-29T15:23:49;1.10;;;1.00;;
12048;SDS011;6085;49.452;8.502;2023-07-29T15:27:53;0.73;;;0.73;;
12048;SDS011;6085;49.452;8.502;2023-07-29T15:31:55;1.00;;;1.00;;
12048;SDS011;6085;49.452;8.502;2023-07-29T15:35:57;1.20;;;1.10;;
12048;SDS011;6085;49.452;8.502;2023-07-29T15:40:02;1.02;;;0.98;;
12048;SDS011;6085;49.452;8.502;2023-07-29T15:44:06;1.38;;;0.85;;
12048;SDS011;6085;49.452;8.502;2023-07-29T15:48:08;1.27;;;1.17;;
12048;SDS011;6085;49.452;8.502;2023-07-29T15:52:10;1.30;;;1.20;;
12048;SDS011;6085;49.452;8.502;2023-07-29T15:56:14;0.80;;;0.80;;
12048;SDS011;6085;49.452;8.502;2023-07-29T16:00:18;1.10;;;0.95;;
12048;SDS011;6085;49.452;8.502;2023-07-29T16:04:22;1.10;;;0.93;;
12048;SDS011;6085;49.452;8.502;2023-07-29T16:08:24;0.90;;;0.90;;
12048;SDS011;6085;49.452;8.502;2023-07-29T16:12:26;1.20;;;1.10;;
12048;SDS011;6085;49.452;8.502;2023-07-29T16:16:29;0.93;;;0.93;;
12048;SDS011;6085;49.452;8.502;2023-07-29T16:20:31;0.95;;;0.95;;
12048;SDS011;6085;49.452;8.502;2023-07-29T16:24:33;0.88;;;0.85;;
12048;SDS011;6085;49.452;8.502;2023-07-29T16:28:35;1.15;;;1.08;;
12048;SDS011;6085;49.452;8.502;2023-07-29T16:32:39;1.20;;;1.10;;
12048;SDS011;6085;49.452;8.502;2023-07-29T16:36:41;1.10;;;1.00;;
12048;SDS011;6085;49.452;8.502;2023-07-29T16:40:43;1.58;;;1.27;;
12048;SDS011;6085;49.452;8.502;2023-07-29T16:44:45;1.10;;;1.10;;
12048;SDS011;6085;49.452;8.502;2023-07-29T16:48:49;1.17;;;1.08;;
12048;SDS011;6085;49.452;8.502;2023-07-29T16:52:50;1.20;;;1.10;;
12048;SDS011;6085;49.452;8.502;2023-07-29T16:56:53;1.25;;;0.93;;
12048;SDS011;6085;49.452;8.502;2023-07-29T17:00:55;0.77;;;0.77;;
12048;SDS011;6085;49.452;8.502;2023-07-29T17:04:59;1.42;;;1.00;;
12048;SDS011;6085;49.452;8.502;2023-07-29T17:09:04;0.80;;;0.80;;
12048;SDS011;6085;49.452;8.502;2023-07-29T17:13:06;1.48;;;0.80;;
12048;SDS011;6085;49.452;8.502;2023-07-29T17:17:08;0.70;;;0.70;;
12048;SDS011;6085;49.452;8.502;2023-07-29T17:21:11;0.80;;;0.80;;
12048;SDS011;6085;49.452;8.502;2023-07-29T17:25:13;0.93;;;0.93;;
12048;SDS011;6085;49.452;8.502;2023-07-29T17:29:15;1.65;;;1.05;;
12048;SDS011;6085;49.452;8.502;2023-07-29T17:33:17;1.13;;;1.02;;
12048;SDS011;6085;49.452;8.502;2023-07-29T17:37:21;1.13;;;1.00;;
12048;SDS011;6085;49.452;8.502;2023-07-29T17:41:23;1.15;;;1.00;;
12048;SDS011;6085;49.452;8.502;2023-07-29T17:45:25;1.08;;;0.95;;
12048;SDS011;6085;49.452;8.502;2023-07-29T17:49:26;0.80;;;0.80;;
12048;SDS011;6085;49.452;8.502;2023-07-29T17:53:30;0.82;;;0.77;;
12048;SDS011;6085;49.452;8.502;2023-07-29T17:57:32;0.80;;;0.80;;
12048;SDS011;6085;49.452;8.502;2023-07-29T18:01:34;1.20;;;1.10;;
12048;SDS011;6085;49.452;8.502;2023-07-29T18:05:36;1.30;;;1.20;;
12048;SDS011;6085;49.452;8.502;2023-07-29T18:09:39;1.35;;;1.25;;
12048;SDS011;6085;49.452;8.502;2023-07-29T18:13:41;1.00;;;0.82;;
12048;SDS011;6085;49.452;8.502;2023-07-29T18:17:43;1.02;;;1.00;;
12048;SDS011;6085;49.452;8.502;2023-07-29T18:21:45;1.20;;;1.17;;
12048;SDS011;6085;49.452;8.502;2023-07-29T18:25:48;1.63;;;1.00;;
12048;SDS011;6085;49.452;8.502;2023-07-29T18:29:52;1.23;;;1.15;;
12048;SDS011;6085;49.452;8.502;2023-07-29T18:33:54;1.10;;;1.10;;
12048;SDS011;6085;49.452;8.502;2023-07-29T18:37:56;1.00;;;1.00;;
12048;SDS011;6085;49.452;8.502;2023-07-29T18:42:00;1.20;;;1.20;;
12048;SDS011;6085;49.452;8.502;2023-07-29T18:46:02;1.20;;;1.20;;
12048;SDS011;6085;49.452;8.502;2023-07-29T18:50:06;1.20;;;1.10;;
12048;SDS011;6085;49.452;8.502;2023-07-29T18:54:08;1.45;;;1.10;;
12048;SDS011;6085;49.452;8.502;2023-07-29T18:58:11;1.20;;;1.20;;
12048;SDS011;6085;49.452;8.502;2023-07-29T19:02:13;1.17;;;1.17;;
12048;SDS011;6085;49.452;8.502;2023-07-29T19:06:16;1.25;;;1.15;;
12048;SDS011;6085;49.452;8.502;2023-07-29T19:10:18;1.23;;;1.17;;
12048;SDS011;6085;49.452;8.502;2023-07-29T19:14:22;1.10;;;0.95;;
12048;SDS011;6085;49.452;8.502;2023-07-29T19:18:24;1.40;;;1.30;;
12048;SDS011;6085;49.452;8.502;2023-07-29T19:22:27;1.50;;;1.40;;
12048;SDS011;6085;49.452;8.502;2023-07-29T19:26:29;1.08;;;0.98;;
12048;SDS011;6085;49.452;8.502;2023-07-29T19:30:33;1.75;;;1.38;;
12048;SDS011;6085;49.452;8.502;2023-07-29T19:34:35;2.50;;;1.20;;
12048;SDS011;6085;49.452;8.502;2023-07-29T19:38:37;1.13;;;1.13;;
12048;SDS011;6085;49.452;8.502;2023-07-29T19:42:39;1.35;;;1.25;;
12048;SDS011;6085;49.452;8.502;2023-07-29T19:46:42;1.52;;;1.42;;
12048;SDS011;6085;49.452;8.502;2023-07-29T19:50:44;1.40;;;1.30;;
12048;SDS011;6085;49.452;8.502;2023-07-29T19:54:46;1.25;;;1.15;;
12048;SDS011;6085;49.452;8.502;2023-07-29T19:58:48;2.38;;;1.17;;
12048;SDS011;6085;49.452;8.502;2023-07-29T20:02:52;1.58;;;1.48;;
12048;SDS011;6085;49.452;8.502;2023-07-29T20:06:53;1.65;;;1.33;;
12048;SDS011;6085;49.452;8.502;2023-07-29T20:10:57;1.52;;;1.42;;
12048;SDS011;6085;49.452;8.502;2023-07-29T20:14:59;1.17;;;1.10;;
12048;SDS011;6085;49.452;8.502;2023-07-29T20:19:04;1.58;;;1.45;;
12048;SDS011;6085;49.452;8.502;2023-07-29T20:23:07;2.10;;;1.83;;
12048;SDS011;6085;49.452;8.502;2023-07-29T20:27:09;1.25;;;1.15;;
12048;SDS011;6085;49.452;8.502;2023-07-29T20:31:11;1.40;;;1.30;;
12048;SDS011;6085;49.452;8.502;2023-07-29T20:35:14;1.27;;;1.23;;
12048;SDS011;6085;49.452;8.502;2023-07-29T20:39:16;1.40;;;1.30;;
12048;SDS011;6085;49.452;8.502;2023-07-29T20:43:18;1.35;;;1.25;;
12048;SDS011;6085;49.452;8.502;2023-07-29T20:47:20;1.60;;;1.50;;
12048;SDS011;6085;49.452;8.502;2023-07-29T20:51:23;1.38;;;1.27;;
12048;SDS011;6085;49.452;8.502;2023-07-29T20:55:25;1.05;;;1.05;;
12048;SDS011;6085;49.452;8.502;2023-07-29T20:59:28;1.80;;;1.30;;
12048;SDS011;6085;49.452;8.502;2023-07-29T21:03:30;1.33;;;1.23;;
12048;SDS011;6085;49.452;8.502;2023-07-29T21:07:34;1.60;;;1.50;;
12048;SDS011;6085;49.452;8.502;2023-07-29T21:11:36;1.45;;;1.35;;
12048;SDS011;6085;49.452;8.502;2023-07-29T21:15:38;1.70;;;1.60;;
12048;SDS011;6085;49.452;8.502;2023-07-29T21:19:40;1.60;;;1.50;;
12048;SDS011;6085;49.452;8.502;2023-07-29T21:23:43;1.60;;;1.50;;
12048;SDS011;6085;49.452;8.502;2023-07-29T21:27:45;2.45;;;1.50;;
12048;SDS011;6085;49.452;8.502;2023-07-29T21:31:47;2.22;;;1.48;;
12048;SDS011;6085;49.452;8.502;2023-07-29T21:35:49;2.03;;;1.90;;
12048;SDS011;6085;49.452;8.502;2023-07-29T21:39:55;2.67;;;1.50;;
12048;SDS011;6085;49.452;8.502;2023-07-29T21:43:58;1.60;;;1.50;;
12048;SDS011;6085;49.452;8.502;2023-07-29T21:48:00;1.80;;;1.70;;
12048;SDS011;6085;49.452;8.502;2023-07-29T21:52:02;1.98;;;1.75;;
12048;SDS011;6085;49.452;8.502;2023-07-29T21:56:06;1.58;;;1.48;;
12048;SDS011;6085;49.452;8.502;2023-07-29T22:00:08;1.73;;;1.63;;
12048;SDS011;6085;49.452;8.502;2023-07-29T22:04:11;1.90;;;1.80;;
12048;SDS011;6085;49.452;8.502;2023-07-29T22:08:13;1.85;;;1.70;;
12048;SDS011;6085;49.452;8.502;2023-07-29T22:12:17;2.10;;;1.80;;
12048;SDS011;6085;49.452;8.502;2023-07-29T22:16:19;2.80;;;1.70;;
12048;SDS011;6085;49.452;8.502;2023-07-29T22:20:21;2.70;;;1.80;;
12048;SDS011;6085;49.452;8.502;2023-07-29T22:24:23;1.90;;;1.80;;
12048;SDS011;6085;49.452;8.502;2023-07-29T22:28:26;1.88;;;1.77;;
12048;SDS011;6085;49.452;8.502;2023-07-29T22:32:29;2.20;;;1.90;;
12048;SDS011;6085;49.452;8.502;2023-07-29T22:36:31;1.83;;;1.73;;
12048;SDS011;6085;49.452;8.502;2023-07-29T22:40:33;2.38;;;1.95;;
12048;SDS011;6085;49.452;8.502;2023-07-29T22:44:37;2.00;;;1.88;;
12048;SDS011;6085;49.452;8.502;2023-07-29T22:48:39;1.67;;;1.58;;
12048;SDS011;6085;49.452;8.502;2023-07-29T22:52:41;2.20;;;1.80;;
12048;SDS011;6085;49.452;8.502;2023-07-29T22:56:42;2.05;;;1.60;;
12048;SDS011;6085;49.452;8.502;2023-07-29T23:00:47;1.20;;;1.10;;
12048;SDS011;6085;49.452;8.502;2023-07-29T23:04:49;1.23;;;1.13;;
12048;SDS011;6085;49.452;8.502;2023-07-29T23:08:51;1.08;;;0.98;;
12048;SDS011;6085;49.452;8.502;2023-07-29T23:12:53;1.52;;;1.10;;
12048;SDS011;6085;49.452;8.502;2023-07-29T23:16:57;0.98;;;0.98;;
12048;SDS011;6085;49.452;8.502;2023-07-29T23:20:58;1.05;;;0.90;;
12048;SDS011;6085;49.452;8.502;2023-07-29T23:25:00;1.05;;;1.05;;
12048;SDS011;6085;49.452;8.502;2023-07-29T23:29:02;3.72;;;1.10;;
12048;SDS011;6085;49.452;8.502;2023-07-29T23:33:05;0.73;;;0.73;;
12048;SDS011;6085;49.452;8.502;2023-07-29T23:37:07;0.80;;;0.80;;
12048;SDS011;6085;49.452;8.502;2023-07-29T23:41:09;0.68;;;0.68;;
12048;SDS011;6085;49.452;8.502;2023-07-29T23:45:11;1.30;;;1.20;;
12048;SDS011;6085;49.452;8.502;2023-07-29T23:49:15;1.00;;;0.88;;
12048;SDS011;6085;49.452;8.502;2023-07-29T23:53:17;1.00;;;0.90;;
12048;SDS011;6085;49.452;8.502;2023-07-29T23:57:18;0.70;;;0.70;;
